sensor_id;sensor_type;location;lat;lon;timestamp;P1;durP1;ratioP1;P2;durP2;ratioP2
24547;SDS011;12713;51.624;4.924;2024-03-02T00:00:05;1.65;;;0.50;;
24547;SDS011;12713;51.624;4.924;2024-03-02T00:02:40;1.95;;;0.60;;
24547;SDS011;12713;51.624;4.924;2024-03-02T00:05:06;1.35;;;0.80;;
24547;SDS011;12713;51.624;4.924;2024-03-02T00:07:32;1.75;;;0.80;;
24547;SDS011;12713;51.624;4.924;2024-03-02T00:09:59;1.45;;;1.00;;
24547;SDS011;12713;51.624;4.924;2024-03-02T00:12:25;2.97;;;1.00;;
24547;SDS011;12713;51.624;4.924;2024-03-02T00:14:51;4.78;;;2.00;;
24547;SDS011;12713;51.624;4.924;2024-03-02T00:17:21;2.33;;;1.42;;
24547;SDS011;12713;51.624;4.924;2024-03-02T00:19:50;1.35;;;1.13;;
24547;SDS011;12713;51.624;4.924;2024-03-02T00:22:17;1.38;;;0.50;;
24547;SDS011;12713;51.624;4.924;2024-03-02T00:24:43;3.80;;;1.50;;
24547;SDS011;12713;51.624;4.924;2024-03-02T00:27:09;3.15;;;1.90;;
24547;SDS011;12713;51.624;4.924;2024-03-02T00:29:39;6.40;;;2.80;;
24547;SDS011;12713;51.624;4.924;2024-03-02T00:32:09;1.20;;;0.90;;
24547;SDS011;12713;51.624;4.924;2024-03-02T00:34:38;2.90;;;1.30;;
24547;SDS011;12713;51.624;4.924;2024-03-02T00:37:04;3.85;;;2.47;;
24547;SDS011;12713;51.624;4.924;2024-03-02T00:39:30;5.57;;;3.10;;
24547;SDS011;12713;51.624;4.924;2024-03-02T00:41:56;4.55;;;2.60;;
24547;SDS011;12713;51.624;4.924;2024-03-02T00:44:22;4.07;;;2.70;;
24547;SDS011;12713;51.624;4.924;2024-03-02T00:46:49;5.43;;;2.42;;
24547;SDS011;12713;51.624;4.924;2024-03-02T00:51:46;3.35;;;1.95;;
24547;SDS011;12713;51.624;4.924;2024-03-02T00:54:14;3.17;;;1.80;;
24547;SDS011;12713;51.624;4.924;2024-03-02T00:56:41;3.00;;;2.03;;
24547;SDS011;12713;51.624;4.924;2024-03-02T00:59:07;2.42;;;1.80;;
24547;SDS011;12713;51.624;4.924;2024-03-02T01:01:33;3.75;;;2.10;;
24547;SDS011;12713;51.624;4.924;2024-03-02T01:03:59;4.63;;;2.40;;
24547;SDS011;12713;51.624;4.924;2024-03-02T01:06:25;4.78;;;2.80;;
24547;SDS011;12713;51.624;4.924;2024-03-02T01:08:51;5.03;;;3.15;;
24547;SDS011;12713;51.624;4.924;2024-03-02T01:11:17;3.88;;;2.03;;
24547;SDS011;12713;51.624;4.924;2024-03-02T01:13:44;3.28;;;1.70;;
24547;SDS011;12713;51.624;4.924;2024-03-02T01:16:11;3.50;;;2.22;;
24547;SDS011;12713;51.624;4.924;2024-03-02T01:18:37;2.47;;;1.88;;
24547;SDS011;12713;51.624;4.924;2024-03-02T01:21:03;5.10;;;2.60;;
24547;SDS011;12713;51.624;4.924;2024-03-02T01:23:29;3.20;;;2.30;;
24547;SDS011;12713;51.624;4.924;2024-03-02T01:25:55;4.72;;;2.60;;
24547;SDS011;12713;51.624;4.924;2024-03-02T01:28:21;3.45;;;1.67;;
24547;SDS011;12713;51.624;4.924;2024-03-02T01:30:47;4.53;;;2.80;;
24547;SDS011;12713;51.624;4.924;2024-03-02T01:33:14;4.68;;;2.40;;
24547;SDS011;12713;51.624;4.924;2024-03-02T01:35:40;5.60;;;1.90;;
24547;SDS011;12713;51.624;4.924;2024-03-02T01:38:06;1.38;;;1.10;;
24547;SDS011;12713;51.624;4.924;2024-03-02T01:40:33;3.30;;;1.30;;
24547;SDS011;12713;51.624;4.924;2024-03-02T01:42:59;1.77;;;1.42;;
24547;SDS011;12713;51.624;4.924;2024-03-02T01:45:25;1.33;;;1.00;;
24547;SDS011;12713;51.624;4.924;2024-03-02T01:47:51;2.38;;;1.00;;
24547;SDS011;12713;51.624;4.924;2024-03-02T01:50:27;3.00;;;1.10;;
24547;SDS011;12713;51.624;4.924;2024-03-02T01:52:54;0.73;;;0.60;;
24547;SDS011;12713;51.624;4.924;2024-03-02T01:55:20;3.30;;;1.08;;
24547;SDS011;12713;51.624;4.924;2024-03-02T01:57:47;1.83;;;1.17;;
24547;SDS011;12713;51.624;4.924;2024-03-02T02:00:14;3.13;;;1.00;;
24547;SDS011;12713;51.624;4.924;2024-03-02T02:02:40;1.38;;;0.95;;
24547;SDS011;12713;51.624;4.924;2024-03-02T02:05:06;1.70;;;1.33;;
24547;SDS011;12713;51.624;4.924;2024-03-02T02:07:32;1.33;;;0.80;;
24547;SDS011;12713;51.624;4.924;2024-03-02T02:09:59;1.10;;;0.82;;
24547;SDS011;12713;51.624;4.924;2024-03-02T02:12:26;1.90;;;0.70;;
24547;SDS011;12713;51.624;4.924;2024-03-02T02:14:52;1.10;;;0.68;;
24547;SDS011;12713;51.624;4.924;2024-03-02T02:17:18;1.50;;;0.85;;
24547;SDS011;12713;51.624;4.924;2024-03-02T02:19:44;2.08;;;0.70;;
24547;SDS011;12713;51.624;4.924;2024-03-02T02:22:10;1.45;;;0.82;;
24547;SDS011;12713;51.624;4.924;2024-03-02T02:24:40;1.00;;;0.80;;
24547;SDS011;12713;51.624;4.924;2024-03-02T02:27:09;1.05;;;0.88;;
24547;SDS011;12713;51.624;4.924;2024-03-02T02:29:35;1.67;;;0.93;;
24547;SDS011;12713;51.624;4.924;2024-03-02T02:32:01;1.40;;;0.80;;
24547;SDS011;12713;51.624;4.924;2024-03-02T02:34:27;1.50;;;0.80;;
24547;SDS011;12713;51.624;4.924;2024-03-02T02:36:53;1.38;;;0.70;;
24547;SDS011;12713;51.624;4.924;2024-03-02T02:39:20;1.73;;;0.98;;
24547;SDS011;12713;51.624;4.924;2024-03-02T02:41:47;1.67;;;0.63;;
24547;SDS011;12713;51.624;4.924;2024-03-02T02:44:13;3.40;;;1.00;;
24547;SDS011;12713;51.624;4.924;2024-03-02T02:46:39;1.60;;;1.08;;
24547;SDS011;12713;51.624;4.924;2024-03-02T02:49:05;1.05;;;0.80;;
24547;SDS011;12713;51.624;4.924;2024-03-02T02:51:32;1.88;;;1.13;;
24547;SDS011;12713;51.624;4.924;2024-03-02T02:53:58;2.80;;;1.00;;
24547;SDS011;12713;51.624;4.924;2024-03-02T02:56:24;1.15;;;0.80;;
24547;SDS011;12713;51.624;4.924;2024-03-02T02:58:50;2.05;;;0.80;;
24547;SDS011;12713;51.624;4.924;2024-03-02T03:01:16;2.03;;;0.60;;
24547;SDS011;12713;51.624;4.924;2024-03-02T03:03:43;1.50;;;0.82;;
24547;SDS011;12713;51.624;4.924;2024-03-02T03:06:09;1.33;;;0.70;;
24547;SDS011;12713;51.624;4.924;2024-03-02T03:08:35;1.77;;;0.88;;
24547;SDS011;12713;51.624;4.924;2024-03-02T03:11:02;3.90;;;0.80;;
24547;SDS011;12713;51.624;4.924;2024-03-02T03:13:28;4.07;;;0.70;;
24547;SDS011;12713;51.624;4.924;2024-03-02T03:15:54;1.70;;;0.90;;
24547;SDS011;12713;51.624;4.924;2024-03-02T03:18:20;2.33;;;0.60;;
24547;SDS011;12713;51.624;4.924;2024-03-02T03:20:46;1.63;;;0.80;;
24547;SDS011;12713;51.624;4.924;2024-03-02T03:23:12;1.35;;;0.85;;
24547;SDS011;12713;51.624;4.924;2024-03-02T03:25:40;1.67;;;0.90;;
24547;SDS011;12713;51.624;4.924;2024-03-02T03:28:07;1.17;;;0.70;;
24547;SDS011;12713;51.624;4.924;2024-03-02T03:30:35;2.97;;;0.68;;
24547;SDS011;12713;51.624;4.924;2024-03-02T03:33:01;1.77;;;0.77;;
24547;SDS011;12713;51.624;4.924;2024-03-02T03:35:27;3.88;;;1.02;;
24547;SDS011;12713;51.624;4.924;2024-03-02T03:37:53;3.00;;;0.80;;
24547;SDS011;12713;51.624;4.924;2024-03-02T03:40:19;2.75;;;0.70;;
24547;SDS011;12713;51.624;4.924;2024-03-02T03:42:45;2.50;;;0.85;;
24547;SDS011;12713;51.624;4.924;2024-03-02T03:45:11;1.38;;;0.77;;
24547;SDS011;12713;51.624;4.924;2024-03-02T03:47:37;2.15;;;0.82;;
24547;SDS011;12713;51.624;4.924;2024-03-02T03:50:03;2.35;;;1.08;;
24547;SDS011;12713;51.624;4.924;2024-03-02T03:52:32;2.63;;;1.10;;
24547;SDS011;12713;51.624;4.924;2024-03-02T03:54:58;2.45;;;0.85;;
24547;SDS011;12713;51.624;4.924;2024-03-02T03:57:25;1.98;;;0.88;;
24547;SDS011;12713;51.624;4.924;2024-03-02T03:59:51;2.63;;;1.02;;
24547;SDS011;12713;51.624;4.924;2024-03-02T04:02:17;1.88;;;0.95;;
24547;SDS011;12713;51.624;4.924;2024-03-02T04:04:43;3.03;;;1.00;;
24547;SDS011;12713;51.624;4.924;2024-03-02T04:07:09;2.15;;;0.68;;
24547;SDS011;12713;51.624;4.924;2024-03-02T04:09:35;4.22;;;0.77;;
24547;SDS011;12713;51.624;4.924;2024-03-02T04:12:01;5.07;;;1.00;;
24547;SDS011;12713;51.624;4.924;2024-03-02T04:14:27;1.67;;;0.85;;
24547;SDS011;12713;51.624;4.924;2024-03-02T04:16:53;2.25;;;0.93;;
24547;SDS011;12713;51.624;4.924;2024-03-02T04:19:19;2.28;;;1.13;;
24547;SDS011;12713;51.624;4.924;2024-03-02T04:21:45;2.58;;;0.95;;
24547;SDS011;12713;51.624;4.924;2024-03-02T04:24:11;4.78;;;0.90;;
24547;SDS011;12713;51.624;4.924;2024-03-02T04:26:37;3.03;;;1.05;;
24547;SDS011;12713;51.624;4.924;2024-03-02T04:29:03;1.90;;;0.98;;
24547;SDS011;12713;51.624;4.924;2024-03-02T04:31:29;4.20;;;0.73;;
24547;SDS011;12713;51.624;4.924;2024-03-02T04:33:55;2.38;;;1.00;;
24547;SDS011;12713;51.624;4.924;2024-03-02T04:36:21;4.78;;;1.08;;
24547;SDS011;12713;51.624;4.924;2024-03-02T04:38:48;1.25;;;0.90;;
24547;SDS011;12713;51.624;4.924;2024-03-02T04:41:14;1.17;;;0.60;;
24547;SDS011;12713;51.624;4.924;2024-03-02T04:43:40;2.67;;;0.73;;
24547;SDS011;12713;51.624;4.924;2024-03-02T04:46:07;1.80;;;0.80;;
24547;SDS011;12713;51.624;4.924;2024-03-02T04:48:33;4.75;;;0.95;;
24547;SDS011;12713;51.624;4.924;2024-03-02T04:50:59;6.10;;;1.02;;
24547;SDS011;12713;51.624;4.924;2024-03-02T04:53:25;1.10;;;0.70;;
24547;SDS011;12713;51.624;4.924;2024-03-02T04:55:51;2.13;;;0.52;;
24547;SDS011;12713;51.624;4.924;2024-03-02T04:58:37;6.85;;;1.08;;
24547;SDS011;12713;51.624;4.924;2024-03-02T05:01:03;2.10;;;0.90;;
24547;SDS011;12713;51.624;4.924;2024-03-02T05:03:29;2.25;;;0.88;;
24547;SDS011;12713;51.624;4.924;2024-03-02T05:05:55;1.38;;;0.57;;
24547;SDS011;12713;51.624;4.924;2024-03-02T05:08:21;4.03;;;1.02;;
24547;SDS011;12713;51.624;4.924;2024-03-02T05:10:47;1.40;;;0.60;;
24547;SDS011;12713;51.624;4.924;2024-03-02T05:13:13;1.63;;;0.60;;
24547;SDS011;12713;51.624;4.924;2024-03-02T05:15:39;5.10;;;0.95;;
24547;SDS011;12713;51.624;4.924;2024-03-02T05:18:05;3.70;;;0.95;;
24547;SDS011;12713;51.624;4.924;2024-03-02T05:20:31;2.45;;;0.80;;
24547;SDS011;12713;51.624;4.924;2024-03-02T05:22:57;2.28;;;0.80;;
24547;SDS011;12713;51.624;4.924;2024-03-02T05:25:23;1.60;;;0.70;;
24547;SDS011;12713;51.624;4.924;2024-03-02T05:27:50;3.50;;;0.90;;
24547;SDS011;12713;51.624;4.924;2024-03-02T05:30:16;1.63;;;0.75;;
24547;SDS011;12713;51.624;4.924;2024-03-02T05:32:42;2.95;;;0.80;;
24547;SDS011;12713;51.624;4.924;2024-03-02T05:35:08;1.33;;;0.60;;
24547;SDS011;12713;51.624;4.924;2024-03-02T05:37:36;4.15;;;0.90;;
24547;SDS011;12713;51.624;4.924;2024-03-02T05:40:02;4.03;;;0.88;;
24547;SDS011;12713;51.624;4.924;2024-03-02T05:42:30;6.32;;;0.80;;
24547;SDS011;12713;51.624;4.924;2024-03-02T05:44:56;2.50;;;0.90;;
24547;SDS011;12713;51.624;4.924;2024-03-02T05:47:22;4.30;;;1.20;;
24547;SDS011;12713;51.624;4.924;2024-03-02T05:49:48;2.60;;;0.82;;
24547;SDS011;12713;51.624;4.924;2024-03-02T05:52:15;2.28;;;0.80;;
24547;SDS011;12713;51.624;4.924;2024-03-02T05:54:41;4.13;;;1.20;;
24547;SDS011;12713;51.624;4.924;2024-03-02T05:57:07;1.90;;;0.93;;
24547;SDS011;12713;51.624;4.924;2024-03-02T05:59:47;3.05;;;0.90;;
24547;SDS011;12713;51.624;4.924;2024-03-02T06:02:13;5.28;;;1.50;;
24547;SDS011;12713;51.624;4.924;2024-03-02T06:04:39;4.40;;;1.30;;
24547;SDS011;12713;51.624;4.924;2024-03-02T06:07:05;6.45;;;1.40;;
24547;SDS011;12713;51.624;4.924;2024-03-02T06:09:31;2.38;;;1.40;;
24547;SDS011;12713;51.624;4.924;2024-03-02T06:11:57;5.40;;;1.65;;
24547;SDS011;12713;51.624;4.924;2024-03-02T06:14:23;5.05;;;1.30;;
24547;SDS011;12713;51.624;4.924;2024-03-02T06:16:49;2.30;;;1.02;;
24547;SDS011;12713;51.624;4.924;2024-03-02T06:19:15;2.45;;;1.10;;
24547;SDS011;12713;51.624;4.924;2024-03-02T06:21:41;2.10;;;1.05;;
24547;SDS011;12713;51.624;4.924;2024-03-02T06:24:07;5.03;;;1.30;;
24547;SDS011;12713;51.624;4.924;2024-03-02T06:26:33;1.52;;;0.80;;
24547;SDS011;12713;51.624;4.924;2024-03-02T06:28:59;4.43;;;1.10;;
24547;SDS011;12713;51.624;4.924;2024-03-02T06:31:27;3.20;;;0.80;;
24547;SDS011;12713;51.624;4.924;2024-03-02T06:33:53;2.88;;;0.90;;
24547;SDS011;12713;51.624;4.924;2024-03-02T06:36:19;3.65;;;1.17;;
24547;SDS011;12713;51.624;4.924;2024-03-02T06:38:45;2.88;;;0.80;;
24547;SDS011;12713;51.624;4.924;2024-03-02T06:41:11;4.65;;;1.10;;
24547;SDS011;12713;51.624;4.924;2024-03-02T06:43:37;5.13;;;0.80;;
24547;SDS011;12713;51.624;4.924;2024-03-02T06:46:04;5.97;;;1.10;;
24547;SDS011;12713;51.624;4.924;2024-03-02T06:48:31;3.55;;;1.35;;
24547;SDS011;12713;51.624;4.924;2024-03-02T06:50:57;13.90;;;1.00;;
24547;SDS011;12713;51.624;4.924;2024-03-02T06:53:23;5.10;;;0.90;;
24547;SDS011;12713;51.624;4.924;2024-03-02T06:55:49;5.60;;;1.42;;
24547;SDS011;12713;51.624;4.924;2024-03-02T06:58:15;2.22;;;0.70;;
24547;SDS011;12713;51.624;4.924;2024-03-02T07:00:41;3.58;;;1.00;;
24547;SDS011;12713;51.624;4.924;2024-03-02T07:03:09;3.35;;;1.05;;
24547;SDS011;12713;51.624;4.924;2024-03-02T07:05:35;4.40;;;1.20;;
24547;SDS011;12713;51.624;4.924;2024-03-02T07:08:01;3.67;;;1.17;;
24547;SDS011;12713;51.624;4.924;2024-03-02T07:10:27;6.03;;;1.38;;
24547;SDS011;12713;51.624;4.924;2024-03-02T07:12:53;1.75;;;0.90;;
24547;SDS011;12713;51.624;4.924;2024-03-02T07:15:19;4.65;;;1.00;;
24547;SDS011;12713;51.624;4.924;2024-03-02T07:17:51;8.60;;;1.23;;
24547;SDS011;12713;51.624;4.924;2024-03-02T07:20:17;5.05;;;1.00;;
24547;SDS011;12713;51.624;4.924;2024-03-02T07:22:43;3.15;;;0.95;;
24547;SDS011;12713;51.624;4.924;2024-03-02T07:25:09;4.95;;;1.20;;
24547;SDS011;12713;51.624;4.924;2024-03-02T07:27:35;3.15;;;0.88;;
24547;SDS011;12713;51.624;4.924;2024-03-02T07:30:02;4.35;;;1.05;;
24547;SDS011;12713;51.624;4.924;2024-03-02T07:32:28;2.25;;;0.82;;
24547;SDS011;12713;51.624;4.924;2024-03-02T07:34:54;4.47;;;0.98;;
24547;SDS011;12713;51.624;4.924;2024-03-02T07:37:21;4.35;;;0.93;;
24547;SDS011;12713;51.624;4.924;2024-03-02T07:39:47;5.18;;;1.15;;
24547;SDS011;12713;51.624;4.924;2024-03-02T07:42:13;5.25;;;1.02;;
24547;SDS011;12713;51.624;4.924;2024-03-02T07:44:39;3.70;;;1.15;;
24547;SDS011;12713;51.624;4.924;2024-03-02T07:47:05;2.33;;;1.10;;
24547;SDS011;12713;51.624;4.924;2024-03-02T07:49:32;5.47;;;1.00;;
24547;SDS011;12713;51.624;4.924;2024-03-02T07:51:58;3.72;;;0.88;;
24547;SDS011;12713;51.624;4.924;2024-03-02T07:54:24;8.40;;;1.10;;
24547;SDS011;12713;51.624;4.924;2024-03-02T07:56:50;1.65;;;0.77;;
24547;SDS011;12713;51.624;4.924;2024-03-02T07:59:16;3.97;;;1.23;;
24547;SDS011;12713;51.624;4.924;2024-03-02T08:01:42;3.38;;;1.70;;
24547;SDS011;12713;51.624;4.924;2024-03-02T08:04:08;4.80;;;1.00;;
24547;SDS011;12713;51.624;4.924;2024-03-02T08:06:34;4.53;;;1.70;;
24547;SDS011;12713;51.624;4.924;2024-03-02T08:09:01;3.60;;;0.90;;
24547;SDS011;12713;51.624;4.924;2024-03-02T08:11:29;6.32;;;1.10;;
24547;SDS011;12713;51.624;4.924;2024-03-02T08:13:56;7.97;;;1.45;;
24547;SDS011;12713;51.624;4.924;2024-03-02T08:16:22;2.08;;;0.90;;
24547;SDS011;12713;51.624;4.924;2024-03-02T08:18:51;2.05;;;1.00;;
24547;SDS011;12713;51.624;4.924;2024-03-02T08:21:17;5.03;;;1.27;;
24547;SDS011;12713;51.624;4.924;2024-03-02T08:23:43;2.05;;;1.08;;
24547;SDS011;12713;51.624;4.924;2024-03-02T08:29:22;2.78;;;0.90;;
24547;SDS011;12713;51.624;4.924;2024-03-02T08:31:48;3.45;;;0.90;;
24547;SDS011;12713;51.624;4.924;2024-03-02T08:34:14;5.07;;;0.98;;
24547;SDS011;12713;51.624;4.924;2024-03-02T08:36:40;4.45;;;1.05;;
24547;SDS011;12713;51.624;4.924;2024-03-02T08:39:07;4.63;;;1.02;;
24547;SDS011;12713;51.624;4.924;2024-03-02T08:41:49;4.43;;;0.90;;
24547;SDS011;12713;51.624;4.924;2024-03-02T08:44:16;3.80;;;1.10;;
24547;SDS011;12713;51.624;4.924;2024-03-02T08:46:43;4.40;;;1.20;;
24547;SDS011;12713;51.624;4.924;2024-03-02T08:49:09;5.38;;;1.00;;
24547;SDS011;12713;51.624;4.924;2024-03-02T08:51:35;5.57;;;1.08;;
24547;SDS011;12713;51.624;4.924;2024-03-02T08:54:01;4.13;;;1.60;;
24547;SDS011;12713;51.624;4.924;2024-03-02T08:56:29;2.50;;;1.27;;
24547;SDS011;12713;51.624;4.924;2024-03-02T08:58:55;4.13;;;1.27;;
24547;SDS011;12713;51.624;4.924;2024-03-02T09:01:21;3.47;;;1.15;;
24547;SDS011;12713;51.624;4.924;2024-03-02T09:03:47;5.00;;;1.50;;
24547;SDS011;12713;51.624;4.924;2024-03-02T09:06:16;6.63;;;1.50;;
24547;SDS011;12713;51.624;4.924;2024-03-02T09:08:43;5.80;;;1.45;;
24547;SDS011;12713;51.624;4.924;2024-03-02T09:11:10;7.88;;;1.30;;
24547;SDS011;12713;51.624;4.924;2024-03-02T09:13:37;7.55;;;1.33;;
24547;SDS011;12713;51.624;4.924;2024-03-02T09:16:03;6.45;;;1.48;;
24547;SDS011;12713;51.624;4.924;2024-03-02T09:18:30;5.20;;;1.33;;
24547;SDS011;12713;51.624;4.924;2024-03-02T09:20:56;5.47;;;1.30;;
24547;SDS011;12713;51.624;4.924;2024-03-02T09:23:22;4.68;;;1.20;;
24547;SDS011;12713;51.624;4.924;2024-03-02T09:25:48;5.60;;;1.20;;
24547;SDS011;12713;51.624;4.924;2024-03-02T09:28:17;5.22;;;1.42;;
24547;SDS011;12713;51.624;4.924;2024-03-02T09:30:43;5.55;;;1.30;;
24547;SDS011;12713;51.624;4.924;2024-03-02T09:33:09;5.07;;;1.10;;
24547;SDS011;12713;51.624;4.924;2024-03-02T09:35:35;9.50;;;1.67;;
24547;SDS011;12713;51.624;4.924;2024-03-02T09:38:01;3.08;;;0.98;;
24547;SDS011;12713;51.624;4.924;2024-03-02T09:40:28;5.15;;;0.93;;
24547;SDS011;12713;51.624;4.924;2024-03-02T09:42:54;7.28;;;1.58;;
24547;SDS011;12713;51.624;4.924;2024-03-02T09:45:22;6.82;;;1.50;;
24547;SDS011;12713;51.624;4.924;2024-03-02T09:47:48;4.72;;;1.33;;
24547;SDS011;12713;51.624;4.924;2024-03-02T09:50:14;8.90;;;1.55;;
24547;SDS011;12713;51.624;4.924;2024-03-02T09:52:42;6.20;;;1.40;;
24547;SDS011;12713;51.624;4.924;2024-03-02T09:55:08;7.72;;;1.13;;
24547;SDS011;12713;51.624;4.924;2024-03-02T09:57:34;5.80;;;1.65;;
24547;SDS011;12713;51.624;4.924;2024-03-02T10:00:00;5.97;;;1.10;;
24547;SDS011;12713;51.624;4.924;2024-03-02T10:02:27;6.00;;;1.33;;
24547;SDS011;12713;51.624;4.924;2024-03-02T10:04:53;4.43;;;1.40;;
24547;SDS011;12713;51.624;4.924;2024-03-02T10:07:19;2.15;;;0.80;;
24547;SDS011;12713;51.624;4.924;2024-03-02T10:09:46;4.60;;;1.00;;
24547;SDS011;12713;51.624;4.924;2024-03-02T10:12:13;4.43;;;1.40;;
24547;SDS011;12713;51.624;4.924;2024-03-02T10:14:39;4.72;;;1.38;;
24547;SDS011;12713;51.624;4.924;2024-03-02T10:17:06;4.30;;;1.10;;
24547;SDS011;12713;51.624;4.924;2024-03-02T10:19:32;5.50;;;1.13;;
24547;SDS011;12713;51.624;4.924;2024-03-02T10:22:00;4.65;;;1.10;;
24547;SDS011;12713;51.624;4.924;2024-03-02T10:24:27;2.25;;;0.88;;
24547;SDS011;12713;51.624;4.924;2024-03-02T10:26:53;4.90;;;1.02;;
24547;SDS011;12713;51.624;4.924;2024-03-02T10:29:21;9.30;;;2.15;;
24547;SDS011;12713;51.624;4.924;2024-03-02T10:31:47;3.55;;;1.30;;
24547;SDS011;12713;51.624;4.924;2024-03-02T10:34:13;4.70;;;1.48;;
24547;SDS011;12713;51.624;4.924;2024-03-02T10:36:41;6.30;;;1.40;;
24547;SDS011;12713;51.624;4.924;2024-03-02T10:39:08;4.22;;;0.90;;
24547;SDS011;12713;51.624;4.924;2024-03-02T10:41:34;4.25;;;0.95;;
24547;SDS011;12713;51.624;4.924;2024-03-02T10:44:07;8.10;;;1.25;;
24547;SDS011;12713;51.624;4.924;2024-03-02T10:46:35;4.88;;;1.13;;
24547;SDS011;12713;51.624;4.924;2024-03-02T10:49:02;3.80;;;1.27;;
24547;SDS011;12713;51.624;4.924;2024-03-02T10:51:29;5.72;;;1.38;;
24547;SDS011;12713;51.624;4.924;2024-03-02T10:54:01;6.30;;;1.40;;
24547;SDS011;12713;51.624;4.924;2024-03-02T10:56:31;7.18;;;1.00;;
24547;SDS011;12713;51.624;4.924;2024-03-02T10:59:06;5.93;;;1.20;;
24547;SDS011;12713;51.624;4.924;2024-03-02T11:01:36;3.97;;;0.90;;
24547;SDS011;12713;51.624;4.924;2024-03-02T11:04:04;4.65;;;1.08;;
24547;SDS011;12713;51.624;4.924;2024-03-02T11:09:06;2.75;;;0.82;;
24547;SDS011;12713;51.624;4.924;2024-03-02T11:11:39;4.88;;;1.15;;
24547;SDS011;12713;51.624;4.924;2024-03-02T11:14:07;3.15;;;1.20;;
24547;SDS011;12713;51.624;4.924;2024-03-02T11:16:34;5.97;;;1.30;;
24547;SDS011;12713;51.624;4.924;2024-03-02T11:19:04;4.25;;;1.00;;
24547;SDS011;12713;51.624;4.924;2024-03-02T11:21:31;10.93;;;1.98;;
24547;SDS011;12713;51.624;4.924;2024-03-02T11:23:58;6.30;;;1.77;;
24547;SDS011;12713;51.624;4.924;2024-03-02T11:26:24;5.32;;;1.17;;
24547;SDS011;12713;51.624;4.924;2024-03-02T11:28:50;5.43;;;1.55;;
24547;SDS011;12713;51.624;4.924;2024-03-02T11:31:16;4.20;;;1.10;;
24547;SDS011;12713;51.624;4.924;2024-03-02T11:33:42;4.50;;;1.25;;
24547;SDS011;12713;51.624;4.924;2024-03-02T11:36:08;6.40;;;1.30;;
24547;SDS011;12713;51.624;4.924;2024-03-02T11:38:35;3.55;;;1.30;;
24547;SDS011;12713;51.624;4.924;2024-03-02T11:41:10;5.47;;;1.60;;
24547;SDS011;12713;51.624;4.924;2024-03-02T11:43:39;3.92;;;1.50;;
24547;SDS011;12713;51.624;4.924;2024-03-02T11:46:06;6.57;;;1.35;;
24547;SDS011;12713;51.624;4.924;2024-03-02T11:48:32;4.93;;;1.23;;
24547;SDS011;12713;51.624;4.924;2024-03-02T11:50:58;5.60;;;1.50;;
24547;SDS011;12713;51.624;4.924;2024-03-02T11:53:24;4.85;;;1.13;;
24547;SDS011;12713;51.624;4.924;2024-03-02T11:55:52;5.05;;;1.25;;
24547;SDS011;12713;51.624;4.924;2024-03-02T11:58:20;5.60;;;1.50;;
24547;SDS011;12713;51.624;4.924;2024-03-02T12:00:55;4.53;;;1.45;;
24547;SDS011;12713;51.624;4.924;2024-03-02T12:03:22;6.93;;;1.42;;
24547;SDS011;12713;51.624;4.924;2024-03-02T12:05:49;7.85;;;1.30;;
24547;SDS011;12713;51.624;4.924;2024-03-02T12:08:15;4.28;;;1.25;;
24547;SDS011;12713;51.624;4.924;2024-03-02T12:10:42;5.22;;;1.02;;
24547;SDS011;12713;51.624;4.924;2024-03-02T12:13:09;4.72;;;0.95;;
24547;SDS011;12713;51.624;4.924;2024-03-02T12:15:37;5.35;;;1.33;;
24547;SDS011;12713;51.624;4.924;2024-03-02T12:18:04;5.15;;;1.23;;
24547;SDS011;12713;51.624;4.924;2024-03-02T12:20:30;4.43;;;1.10;;
24547;SDS011;12713;51.624;4.924;2024-03-02T12:23:04;6.57;;;1.33;;
24547;SDS011;12713;51.624;4.924;2024-03-02T12:25:31;3.92;;;1.35;;
24547;SDS011;12713;51.624;4.924;2024-03-02T12:28:01;6.05;;;1.17;;
24547;SDS011;12713;51.624;4.924;2024-03-02T12:30:29;4.47;;;0.88;;
24547;SDS011;12713;51.624;4.924;2024-03-02T12:32:55;6.88;;;1.20;;
24547;SDS011;12713;51.624;4.924;2024-03-02T12:35:21;9.13;;;1.27;;
24547;SDS011;12713;51.624;4.924;2024-03-02T12:37:48;5.47;;;1.23;;
24547;SDS011;12713;51.624;4.924;2024-03-02T12:40:15;3.92;;;1.50;;
24547;SDS011;12713;51.624;4.924;2024-03-02T12:42:43;6.10;;;1.30;;
24547;SDS011;12713;51.624;4.924;2024-03-02T12:45:09;3.67;;;1.15;;
24547;SDS011;12713;51.624;4.924;2024-03-02T12:47:36;4.70;;;1.10;;
24547;SDS011;12713;51.624;4.924;2024-03-02T12:50:03;3.65;;;1.00;;
24547;SDS011;12713;51.624;4.924;2024-03-02T12:52:29;3.97;;;1.23;;
24547;SDS011;12713;51.624;4.924;2024-03-02T12:54:57;6.00;;;1.30;;
24547;SDS011;12713;51.624;4.924;2024-03-02T12:57:31;3.25;;;1.08;;
24547;SDS011;12713;51.624;4.924;2024-03-02T13:00:00;4.50;;;1.40;;
24547;SDS011;12713;51.624;4.924;2024-03-02T13:02:27;4.78;;;1.08;;
24547;SDS011;12713;51.624;4.924;2024-03-02T13:04:54;6.70;;;1.38;;
24547;SDS011;12713;51.624;4.924;2024-03-02T13:07:20;4.90;;;1.50;;
24547;SDS011;12713;51.624;4.924;2024-03-02T13:09:49;3.95;;;1.10;;
24547;SDS011;12713;51.624;4.924;2024-03-02T13:12:16;4.65;;;1.10;;
24547;SDS011;12713;51.624;4.924;2024-03-02T13:14:42;3.10;;;1.00;;
24547;SDS011;12713;51.624;4.924;2024-03-02T13:17:08;4.28;;;1.25;;
24547;SDS011;12713;51.624;4.924;2024-03-02T13:19:35;7.90;;;1.35;;
24547;SDS011;12713;51.624;4.924;2024-03-02T13:22:01;5.80;;;1.20;;
24547;SDS011;12713;51.624;4.924;2024-03-02T13:24:28;6.72;;;1.23;;
24547;SDS011;12713;51.624;4.924;2024-03-02T13:26:55;3.85;;;1.27;;
24547;SDS011;12713;51.624;4.924;2024-03-02T13:29:23;4.68;;;1.27;;
24547;SDS011;12713;51.624;4.924;2024-03-02T13:31:49;6.82;;;1.10;;
24547;SDS011;12713;51.624;4.924;2024-03-02T13:34:15;2.85;;;1.08;;
24547;SDS011;12713;51.624;4.924;2024-03-02T13:36:41;4.40;;;1.00;;
24547;SDS011;12713;51.624;4.924;2024-03-02T13:39:07;3.88;;;1.20;;
24547;SDS011;12713;51.624;4.924;2024-03-02T13:41:36;5.63;;;1.42;;
24547;SDS011;12713;51.624;4.924;2024-03-02T13:44:02;3.60;;;0.73;;
24547;SDS011;12713;51.624;4.924;2024-03-02T13:46:28;7.60;;;1.52;;
24547;SDS011;12713;51.624;4.924;2024-03-02T13:48:54;6.28;;;1.10;;
24547;SDS011;12713;51.624;4.924;2024-03-02T13:51:21;6.38;;;1.20;;
24547;SDS011;12713;51.624;4.924;2024-03-02T13:53:47;5.30;;;1.10;;
24547;SDS011;12713;51.624;4.924;2024-03-02T13:56:13;4.72;;;1.27;;
24547;SDS011;12713;51.624;4.924;2024-03-02T13:58:39;2.60;;;1.20;;
24547;SDS011;12713;51.624;4.924;2024-03-02T14:01:05;4.18;;;0.98;;
24547;SDS011;12713;51.624;4.924;2024-03-02T14:03:31;3.38;;;0.82;;
24547;SDS011;12713;51.624;4.924;2024-03-02T14:05:57;6.13;;;1.10;;
24547;SDS011;12713;51.624;4.924;2024-03-02T14:08:23;5.13;;;1.00;;
24547;SDS011;12713;51.624;4.924;2024-03-02T14:10:49;6.10;;;1.02;;
24547;SDS011;12713;51.624;4.924;2024-03-02T14:13:15;7.50;;;1.52;;
24547;SDS011;12713;51.624;4.924;2024-03-02T14:15:42;5.13;;;1.10;;
24547;SDS011;12713;51.624;4.924;2024-03-02T14:18:08;3.60;;;0.98;;
24547;SDS011;12713;51.624;4.924;2024-03-02T14:20:37;3.55;;;1.10;;
24547;SDS011;12713;51.624;4.924;2024-03-02T14:23:03;4.68;;;1.20;;
24547;SDS011;12713;51.624;4.924;2024-03-02T14:25:29;6.07;;;1.25;;
24547;SDS011;12713;51.624;4.924;2024-03-02T14:27:58;6.18;;;1.48;;
24547;SDS011;12713;51.624;4.924;2024-03-02T14:30:24;3.65;;;0.95;;
24547;SDS011;12713;51.624;4.924;2024-03-02T14:32:50;5.80;;;1.10;;
24547;SDS011;12713;51.624;4.924;2024-03-02T14:35:16;2.75;;;1.15;;
24547;SDS011;12713;51.624;4.924;2024-03-02T14:37:42;3.55;;;0.95;;
24547;SDS011;12713;51.624;4.924;2024-03-02T14:40:08;6.63;;;1.50;;
24547;SDS011;12713;51.624;4.924;2024-03-02T14:42:35;4.60;;;1.42;;
24547;SDS011;12713;51.624;4.924;2024-03-02T14:45:02;8.80;;;1.45;;
24547;SDS011;12713;51.624;4.924;2024-03-02T14:47:30;4.03;;;1.00;;
24547;SDS011;12713;51.624;4.924;2024-03-02T14:49:58;4.88;;;1.23;;
24547;SDS011;12713;51.624;4.924;2024-03-02T14:52:24;4.90;;;1.38;;